Time;durP1;ratioP1;P1;durP2;ratioP2;P2;SDS_P1;SDS_P2;PMS_P1;PMS_P2;Temp;Humidity;BMP_temperature;BMP_pressure;BME280_temperature;BME280_humidity;BME280_pressure;Samples;Min_cycle;Max_cycle;Signal;HPM_P1;HPM_P2
2023/07/08 00:00:56;;;;;;;4.87;3.20;;;25.30;99.90;;;;;;1892620;75;21181;-75
2023/07/08 00:06:27;;;;;;;5.47;3.83;;;25.00;99.90;;;;;;1953125;72;22747;-75
2023/07/08 00:09:18;;;;;;;5.37;3.50;;;24.90;99.90;;;;;;1908466;74;21148;-75
2023/07/08 00:12:12;;;;;;;3.83;3.42;;;24.90;99.90;;;;;;1903000;75;21088;-74
2023/07/08 00:17:43;;;;;;;6.10;3.47;;;24.90;99.90;;;;;;1946729;72;22264;-75
2023/07/08 00:20:36;;;;;;;5.67;3.52;;;24.90;99.90;;;;;;1892862;73;21066;-75
2023/07/08 00:26:14;;;;;;;5.78;3.52;;;24.80;99.90;;;;;;1958777;72;22242;-74
2023/07/08 00:31:44;;;;;;;5.33;3.67;;;24.90;99.90;;;;;;1925970;72;22212;-75
2023/07/08 00:37:15;;;;;;;6.17;3.47;;;24.90;99.90;;;;;;1944338;72;22573;-75
2023/07/08 00:40:15;;;;;;;6.40;3.70;;;24.90;99.90;;;;;;1913519;75;21098;-75
2023/07/08 00:43:10;;;;;;;5.58;3.62;;;24.90;99.90;;;;;;1890542;75;21236;-75
2023/07/08 00:48:46;;;;;;;5.95;3.77;;;25.10;99.90;;;;;;1941482;72;22130;-75
2023/07/08 00:51:39;;;;;;;5.00;3.47;;;25.00;99.90;;;;;;1888444;75;21134;-75
2023/07/08 00:54:30;;;;;;;9.18;3.95;;;25.00;99.90;;;;;;1901875;75;21166;-75
2023/07/08 00:57:24;;;;;;;6.75;3.40;;;25.00;99.90;;;;;;1901320;75;21110;-75
2023/07/08 01:00:17;;;;;;;6.42;3.80;;;25.00;99.90;;;;;;1884137;75;21200;-75
2023/07/08 01:03:09;;;;;;;5.20;3.83;;;24.80;99.90;;;;;;1906078;75;21055;-75
2023/07/08 01:06:01;;;;;;;6.17;4.20;;;24.90;99.90;;;;;;1900984;75;21086;-75
2023/07/08 01:08:53;;;;;;;7.03;4.17;;;24.90;99.90;;;;;;1896679;75;21143;-75
2023/07/08 01:11:45;;;;;;;7.75;3.87;;;25.00;99.90;;;;;;1891973;75;21092;-75
2023/07/08 01:14:39;;;;;;;5.67;3.80;;;25.10;99.90;;;;;;1903612;75;21102;-75
2023/07/08 01:17:32;;;;;;;8.18;4.22;;;25.10;99.90;;;;;;1881439;75;21275;-75
2023/07/08 01:20:24;;;;;;;7.33;3.60;;;25.10;99.90;;;;;;1886990;75;21165;-75
2023/07/08 01:23:16;;;;;;;8.15;4.00;;;25.10;99.90;;;;;;1896923;75;21095;-75
2023/07/08 01:26:07;;;;;;;7.75;4.08;;;25.10;99.90;;;;;;1882056;75;21075;-75
2023/07/08 01:31:37;;;;;;;4.75;3.80;;;25.20;99.90;;;;;;1941872;72;22220;-75
2023/07/08 01:37:07;;;;;;;7.37;3.92;;;25.00;99.90;;;;;;1939158;72;22208;-75
2023/07/08 01:39:58;;;;;;;5.80;3.80;;;25.00;99.90;;;;;;1887436;75;21118;-75
2023/07/08 01:42:50;;;;;;;9.78;4.33;;;25.10;99.90;;;;;;1894372;75;21070;-75
2023/07/08 01:45:43;;;;;;;6.50;3.60;;;25.20;99.90;;;;;;1857298;76;21152;-74
2023/07/08 01:51:13;;;;;;;4.65;3.60;;;25.20;99.90;;;;;;1948721;72;22313;-74
2023/07/08 01:56:44;;;;;;;6.78;4.10;;;25.10;99.90;;;;;;1939605;72;22185;-75
2023/07/08 02:02:14;;;;;;;6.78;3.80;;;25.10;99.90;;;;;;1952771;72;23916;-75
2023/07/08 02:05:07;;;;;;;7.37;4.10;;;25.10;99.90;;;;;;1919910;73;21201;-75
2023/07/08 02:10:39;;;;;;;4.55;3.77;;;25.00;99.90;;;;;;1933750;72;22243;-74
2023/07/08 02:13:30;;;;;;;5.53;4.15;;;24.90;99.90;;;;;;1897621;74;21069;-74
2023/07/08 02:16:21;;;;;;;5.70;3.67;;;24.90;99.90;;;;;;1884975;75;21160;-74
2023/07/08 02:19:13;;;;;;;7.37;3.65;;;24.90;99.90;;;;;;1892818;75;21175;-75
2023/07/08 02:22:05;;;;;;;5.55;3.90;;;24.90;99.90;;;;;;1891049;75;21091;-74
2023/07/08 02:27:34;;;;;;;6.72;3.40;;;24.90;99.90;;;;;;1954688;72;22165;-75
2023/07/08 02:30:25;;;;;;;4.20;3.60;;;25.00;99.90;;;;;;1912834;74;21051;-75
2023/07/08 02:33:17;;;;;;;6.83;3.58;;;24.90;99.90;;;;;;1904984;75;21102;-75
2023/07/08 02:36:08;;;;;;;4.67;3.67;;;24.80;99.90;;;;;;1886842;74;21529;-75
2023/07/08 02:41:39;;;;;;;5.08;3.67;;;24.50;99.90;;;;;;1947776;72;22232;-74
2023/07/08 02:44:30;;;;;;;6.78;3.50;;;24.40;99.90;;;;;;1877831;75;21095;-74
2023/07/08 02:47:22;;;;;;;6.42;3.70;;;24.30;99.90;;;;;;1905868;75;21131;-75
2023/07/08 02:50:13;;;;;;;5.50;3.20;;;24.30;99.90;;;;;;1902070;75;21136;-75
2023/07/08 02:53:04;;;;;;;4.42;3.52;;;24.20;99.90;;;;;;1908474;75;21118;-75
2023/07/08 02:55:56;;;;;;;6.08;3.10;;;24.10;99.90;;;;;;1903066;75;21160;-75
2023/07/08 03:01:26;;;;;;;5.85;3.40;;;24.10;99.90;;;;;;1957624;72;22228;-74
2023/07/08 03:04:18;;;;;;;6.97;3.67;;;24.10;99.90;;;;;;1922556;74;21135;-75
2023/07/08 03:07:11;;;;;;;6.40;3.45;;;24.20;99.90;;;;;;1902672;74;21077;-75
2023/07/08 03:10:03;;;;;;;5.20;3.25;;;24.10;99.90;;;;;;1913167;75;21107;-75
2023/07/08 03:12:54;;;;;;;5.30;3.42;;;24.10;99.90;;;;;;1914867;73;21503;-75
2023/07/08 03:15:47;;;;;;;7.50;3.42;;;24.00;99.90;;;;;;1918345;74;21073;-75
2023/07/08 03:18:45;;;;;;;4.35;3.17;;;23.90;99.90;;;;;;1924483;74;21172;-75
2023/07/08 03:21:31;;;;;;;5.15;3.00;;;24.00;99.90;;;;;;1906844;75;21107;-75
2023/07/08 03:27:04;;;;;;;8.05;3.67;;;24.00;99.90;;;;;;1947067;72;22157;-76
2023/07/08 03:29:56;;;;;;;6.80;3.25;;;24.00;99.90;;;;;;1893459;74;21094;-75
2023/07/08 03:32:47;;;;;;;4.78;3.50;;;24.00;99.90;;;;;;1889080;75;21617;-75
2023/07/08 03:35:39;;;;;;;6.17;3.50;;;24.10;99.90;;;;;;1897168;75;21056;-75
2023/07/08 03:41:14;;;;;;;8.00;3.83;;;24.30;99.90;;;;;;1944002;72;22151;-75
2023/07/08 03:46:44;;;;;;;5.55;3.42;;;24.20;99.90;;;;;;1939501;72;22175;-75
2023/07/08 03:52:17;;;;;;;5.75;3.00;;;24.20;99.90;;;;;;1938361;72;22334;-74
2023/07/08 03:55:11;;;;;;;6.22;3.00;;;24.20;99.90;;;;;;1893291;75;21090;-74
2023/07/08 03:58:03;;;;;;;7.10;3.05;;;24.20;99.90;;;;;;1891142;75;21259;-74
2023/07/08 04:00:54;;;;;;;4.50;3.12;;;24.10;99.90;;;;;;1913286;75;21067;-75
2023/07/08 04:03:46;;;;;;;5.25;2.62;;;24.00;99.90;;;;;;1890490;75;21184;-74
2023/07/08 04:06:37;;;;;;;7.15;3.00;;;24.00;99.90;;;;;;1907304;75;21172;-74
2023/07/08 04:09:29;;;;;;;6.70;3.08;;;23.90;99.90;;;;;;1895090;75;21148;-74
2023/07/08 04:12:20;;;;;;;3.92;2.90;;;24.00;99.90;;;;;;1893030;75;21059;-74
2023/07/08 04:15:13;;;;;;;6.25;2.47;;;23.90;99.90;;;;;;1895516;75;21104;-75
2023/07/08 04:18:04;;;;;;;4.62;2.90;;;23.70;99.90;;;;;;1838468;77;21354;-74
2023/07/08 04:20:55;;;;;;;4.80;2.80;;;23.80;99.90;;;;;;1896091;75;21142;-75
2023/07/08 04:26:26;;;;;;;7.70;3.58;;;23.90;99.90;;;;;;1910076;72;22260;-74
2023/07/08 04:29:19;;;;;;;7.25;3.27;;;23.80;99.90;;;;;;1900532;75;21143;-75
2023/07/08 04:32:11;;;;;;;5.47;3.15;;;23.70;99.90;;;;;;1903299;75;21221;-74
2023/07/08 04:35:03;;;;;;;5.92;3.33;;;23.70;99.90;;;;;;1906619;75;21155;-75
2023/07/08 04:37:54;;;;;;;7.12;3.05;;;23.60;99.90;;;;;;1908080;75;21121;-74
2023/07/08 04:40:46;;;;;;;6.03;3.02;;;23.60;99.90;;;;;;1898382;75;21058;-75
2023/07/08 04:46:21;;;;;;;5.53;3.00;;;23.60;99.90;;;;;;1930387;72;22232;-75
2023/07/08 04:49:13;;;;;;;5.72;2.90;;;23.60;99.90;;;;;;1913386;74;21108;-75
2023/07/08 04:52:05;;;;;;;5.42;3.10;;;23.60;99.90;;;;;;1912732;74;21571;-75
2023/07/08 04:54:56;;;;;;;4.45;3.00;;;23.50;99.90;;;;;;1915784;73;21120;-75
2023/07/08 04:57:47;;;;;;;6.03;3.25;;;23.40;99.90;;;;;;1903747;74;21137;-75
2023/07/08 05:03:19;;;;;;;4.75;2.75;;;23.30;99.90;;;;;;1946243;72;22234;-75
2023/07/08 05:06:10;;;;;;;4.80;3.12;;;23.40;99.90;;;;;;1894929;75;21568;-75
2023/07/08 05:11:42;;;;;;;6.35;2.95;;;23.50;99.90;;;;;;1926675;72;22274;-75
2023/07/08 05:17:14;;;;;;;5.67;2.70;;;23.50;99.90;;;;;;1932110;72;22604;-75
2023/07/08 05:20:08;;;;;;;5.58;2.80;;;23.50;99.90;;;;;;1897712;74;21103;-75
2023/07/08 05:22:58;;;;;;;5.37;2.98;;;23.50;99.90;;;;;;1891951;75;21155;-75
2023/07/08 05:25:50;;;;;;;5.42;2.60;;;23.50;99.90;;;;;;1902277;75;21096;-76
2023/07/08 05:28:41;;;;;;;5.72;3.40;;;23.60;99.90;;;;;;1894245;75;21049;-76
2023/07/08 05:31:32;;;;;;;7.17;3.30;;;23.60;99.90;;;;;;1886441;75;21164;-75
2023/07/08 05:34:24;;;;;;;7.05;3.22;;;23.60;99.90;;;;;;1887009;75;21251;-75
2023/07/08 05:37:18;;;;;;;4.80;2.77;;;23.60;99.90;;;;;;1890672;75;21098;-75
2023/07/08 05:40:11;;;;;;;6.53;2.83;;;23.60;99.90;;;;;;1891692;75;21118;-75
2023/07/08 05:43:02;;;;;;;5.95;2.98;;;23.60;99.90;;;;;;1901125;75;21166;-76
2023/07/08 05:45:54;;;;;;;6.67;3.20;;;23.60;99.90;;;;;;1900596;75;21094;-76
2023/07/08 05:51:28;;;;;;;5.12;3.20;;;23.60;99.90;;;;;;1929183;72;22274;-75
2023/07/08 05:54:19;;;;;;;5.65;2.83;;;23.50;99.90;;;;;;1893146;75;21211;-75
2023/07/08 05:57:12;;;;;;;4.62;2.85;;;23.40;99.90;;;;;;1897526;75;21102;-75
2023/07/08 06:00:04;;;;;;;4.42;2.90;;;23.50;99.90;;;;;;1888697;75;21519;-75
2023/07/08 06:02:56;;;;;;;6.55;3.00;;;23.40;99.90;;;;;;1885871;75;21180;-75
2023/07/08 06:05:49;;;;;;;6.22;3.17;;;23.50;99.90;;;;;;1890114;75;21104;-75
2023/07/08 06:11:21;;;;;;;5.28;3.17;;;23.50;99.90;;;;;;1924695;72;22834;-75
2023/07/08 06:14:13;;;;;;;6.08;3.22;;;23.60;99.90;;;;;;1900869;75;21197;-75
2023/07/08 06:17:04;;;;;;;4.72;2.60;;;23.60;99.90;;;;;;1899178;75;21150;-76
2023/07/08 06:19:55;;;;;;;7.70;2.90;;;23.60;99.90;;;;;;1890994;75;21194;-76
2023/07/08 06:22:46;;;;;;;3.52;2.90;;;23.60;99.90;;;;;;1889129;75;21039;-75
2023/07/08 06:25:39;;;;;;;7.17;3.02;;;23.70;99.90;;;;;;1896702;75;21538;-75
2023/07/08 06:28:29;;;;;;;5.62;3.00;;;23.70;99.90;;;;;;1889467;75;21116;-75
2023/07/08 06:31:21;;;;;;;4.90;3.08;;;23.70;99.90;;;;;;1893034;75;21105;-76
2023/07/08 06:34:12;;;;;;;4.92;3.20;;;23.70;99.90;;;;;;1886212;75;21106;-76
2023/07/08 06:37:03;;;;;;;8.43;3.15;;;23.80;99.90;;;;;;1864884;76;21101;-75
2023/07/08 06:39:55;;;;;;;5.55;3.40;;;23.90;99.90;;;;;;1916134;75;21087;-75
2023/07/08 06:45:26;;;;;;;7.55;3.22;;;24.00;99.90;;;;;;1945755;72;22184;-75
2023/07/08 06:48:18;;;;;;;4.33;3.10;;;24.10;99.90;;;;;;1922535;73;21113;-75
2023/07/08 06:51:09;;;;;;;4.67;2.85;;;24.10;99.90;;;;;;1920205;73;21115;-75
2023/07/08 06:54:04;;;;;;;8.73;3.08;;;24.20;99.90;;;;;;1914326;73;21140;-76
2023/07/08 06:56:53;;;;;;;5.92;3.10;;;24.20;99.90;;;;;;1917030;73;21234;-76
2023/07/08 06:59:45;;;;;;;5.35;2.85;;;24.30;99.90;;;;;;1920948;73;21153;-76
2023/07/08 07:02:36;;;;;;;6.10;2.77;;;24.30;99.90;;;;;;1928234;73;21099;-76
2023/07/08 07:05:28;;;;;;;6.47;2.87;;;24.40;99.90;;;;;;1933192;73;21144;-76
2023/07/08 07:08:19;;;;;;;5.70;2.80;;;24.50;99.90;;;;;;1919952;73;21130;-76
2023/07/08 07:11:10;;;;;;;6.70;3.00;;;24.50;99.90;;;;;;1920288;73;21215;-76
2023/07/08 07:14:02;;;;;;;6.03;2.75;;;24.60;99.90;;;;;;1926888;73;21252;-76
2023/07/08 07:16:53;;;;;;;6.20;3.02;;;24.70;99.90;;;;;;1921397;73;21699;-75
2023/07/08 07:19:47;;;;;;;5.65;3.02;;;24.70;99.90;;;;;;1920703;73;21189;-76
2023/07/08 07:22:38;;;;;;;4.92;2.87;;;24.70;99.90;;;;;;1919109;73;21179;-75
2023/07/08 07:25:30;;;;;;;7.50;3.02;;;24.80;99.90;;;;;;1918439;73;21539;-76
2023/07/08 07:28:21;;;;;;;5.67;2.85;;;24.90;99.90;;;;;;1930195;73;21120;-75
2023/07/08 07:31:12;;;;;;;7.17;3.30;;;25.00;99.90;;;;;;1921087;73;21402;-76
2023/07/08 07:34:03;;;;;;;6.35;3.05;;;25.10;99.90;;;;;;1922144;73;21200;-75
2023/07/08 07:36:55;;;;;;;5.00;2.70;;;25.10;99.90;;;;;;1919459;73;21146;-76
2023/07/08 07:39:47;;;;;;;5.72;3.10;;;25.10;99.90;;;;;;1929650;73;21172;-76
2023/07/08 07:42:39;;;;;;;4.83;2.92;;;25.30;99.90;;;;;;1919089;73;21091;-75
2023/07/08 07:45:31;;;;;;;5.22;3.12;;;25.40;99.90;;;;;;1936732;73;21243;-76
2023/07/08 07:48:24;;;;;;;4.97;2.83;;;25.50;99.90;;;;;;1933587;73;21106;-76
2023/07/08 07:51:15;;;;;;;6.22;2.80;;;25.50;99.90;;;;;;1928702;73;21058;-76
2023/07/08 07:56:47;;;;;;;4.08;2.42;;;25.60;99.90;;;;;;1930822;72;22219;-75
2023/07/08 07:59:39;;;;;;;6.62;2.87;;;25.60;99.90;;;;;;1893537;74;21424;-75
2023/07/08 08:02:30;;;;;;;6.75;2.70;;;25.60;99.90;;;;;;1895990;73;21098;-75
2023/07/08 08:05:22;;;;;;;4.97;2.92;;;25.60;99.90;;;;;;1851446;76;21071;-75
2023/07/08 08:08:13;;;;;;;4.58;2.65;;;25.70;99.90;;;;;;1888271;75;21248;-76
2023/07/08 08:11:04;;;;;;;7.08;3.22;;;25.70;99.90;;;;;;1896723;75;21169;-76
2023/07/08 08:16:34;;;;;;;7.00;2.70;;;26.00;99.90;;;;;;1924065;72;22311;-77
2023/07/08 08:19:25;;;;;;;6.55;2.87;;;26.10;99.90;;;;;;1897382;75;21186;-75
2023/07/08 08:22:16;;;;;;;5.17;3.15;;;26.20;99.90;;;;;;1895073;75;21560;-76
2023/07/08 08:25:08;;;;;;;5.50;2.60;;;26.20;99.90;;;;;;1893742;75;21149;-76
2023/07/08 08:27:59;;;;;;;6.67;2.95;;;26.10;99.90;;;;;;1897315;75;21576;-76
2023/07/08 08:30:51;;;;;;;6.95;2.62;;;26.10;99.90;;;;;;1897900;74;21244;-76
2023/07/08 08:36:21;;;;;;;4.62;2.92;;;26.20;99.90;;;;;;1949877;72;22252;-76
2023/07/08 08:39:13;;;;;;;4.78;2.95;;;26.30;99.90;;;;;;1939218;73;21185;-75
2023/07/08 08:42:05;;;;;;;4.67;2.87;;;26.40;99.90;;;;;;1918127;73;21095;-76
2023/07/08 08:44:59;;;;;;;6.83;3.02;;;26.60;99.90;;;;;;1923363;73;21094;-76
2023/07/08 08:47:52;;;;;;;4.97;3.00;;;26.50;99.90;;;;;;1930728;73;21059;-76
2023/07/08 08:50:47;;;;;;;6.70;3.55;;;26.60;99.90;;;;;;1919834;73;21091;-76
2023/07/08 08:56:23;;;;;;;5.75;3.30;;;26.60;99.90;;;;;;1946962;72;22269;-76
2023/07/08 08:59:17;;;;;;;7.47;3.77;;;26.70;99.90;;;;;;1920648;73;21169;-77
2023/07/08 09:02:22;;;;;;;6.75;3.25;;;26.80;99.90;;;;;;1917829;73;21129;-76
2023/07/08 09:05:14;;;;;;;5.22;3.47;;;26.80;99.90;;;;;;1921328;73;21111;-76
2023/07/08 09:08:11;;;;;;;5.12;2.83;;;26.90;99.90;;;;;;1918860;73;21086;-76
2023/07/08 09:11:06;;;;;;;6.28;3.00;;;26.90;99.90;;;;;;1927850;73;21690;-76
2023/07/08 09:13:58;;;;;;;5.85;3.47;;;27.00;99.90;;;;;;1917937;73;21247;-75
2023/07/08 09:16:55;;;;;;;5.80;3.60;;;27.00;99.90;;;;;;1923037;73;21371;-76
2023/07/08 09:19:49;;;;;;;7.37;3.40;;;27.00;99.90;;;;;;1925139;73;21166;-77
2023/07/08 09:22:43;;;;;;;4.45;3.33;;;27.10;99.90;;;;;;1927618;73;21393;-76
2023/07/08 09:25:38;;;;;;;4.97;3.10;;;27.10;99.90;;;;;;1920855;73;21109;-75
2023/07/08 09:31:24;;;;;;;4.37;3.10;;;27.20;99.90;;;;;;1912726;72;22240;-76
2023/07/08 09:34:18;;;;;;;6.35;3.20;;;27.20;99.90;;;;;;1906858;75;21152;-75
2023/07/08 09:37:26;;;;;;;7.83;3.00;;;27.20;99.90;;;;;;1916007;75;21107;-75
2023/07/08 09:40:21;;;;;;;7.35;3.22;;;27.30;99.90;;;;;;1910172;75;21538;-75
2023/07/08 09:43:18;;;;;;;3.62;3.05;;;27.40;99.90;;;;;;1914300;75;21171;-75
2023/07/08 09:46:13;;;;;;;7.45;3.40;;;27.50;99.90;;;;;;1906542;75;21106;-75
2023/07/08 09:51:49;;;;;;;6.15;2.95;;;27.60;99.90;;;;;;1924770;72;22244;-79
2023/07/08 09:54:42;;;;;;;5.53;3.20;;;27.70;99.90;;;;;;1921570;73;21127;-80
2023/07/08 09:57:35;;;;;;;4.40;2.95;;;27.90;99.90;;;;;;1912209;73;21114;-80
2023/07/08 10:00:34;;;;;;;3.98;2.92;;;27.90;99.90;;;;;;1914185;74;21126;-79
2023/07/08 10:03:27;;;;;;;5.67;3.20;;;28.00;99.90;;;;;;1898368;74;21141;-80
2023/07/08 10:06:21;;;;;;;5.85;3.15;;;28.10;99.90;;;;;;1911196;74;21110;-80
2023/07/08 10:09:18;;;;;;;4.83;3.22;;;28.10;99.90;;;;;;1910416;74;21129;-81
2023/07/08 10:12:12;;;;;;;4.20;2.85;;;28.20;99.90;;;;;;1888812;75;21117;-80
2023/07/08 10:15:07;;;;;;;4.87;3.08;;;28.20;99.90;;;;;;1897927;74;21155;-81
2023/07/08 10:20:42;;;;;;;5.58;3.10;;;28.40;99.90;;;;;;1933779;72;22500;-81
2023/07/08 10:26:27;;;;;;;5.58;3.35;;;28.60;99.90;;;;;;1955931;72;22182;-81
2023/07/08 10:29:21;;;;;;;5.22;2.98;;;28.70;99.90;;;;;;1916663;75;21578;-81
2023/07/08 10:32:17;;;;;;;5.65;3.08;;;28.80;99.90;;;;;;1920417;73;21211;-81
2023/07/08 10:38:03;;;;;;;5.42;2.83;;;28.90;99.90;;;;;;1944735;72;22325;-82
2023/07/08 10:40:57;;;;;;;4.08;2.83;;;28.90;99.90;;;;;;1926446;73;21118;-81
2023/07/08 10:46:37;;;;;;;7.62;3.37;;;28.90;99.90;;;;;;1924689;72;22318;-81
2023/07/08 10:49:35;;;;;;;6.17;3.15;;;29.00;99.90;;;;;;1907458;74;21288;-81
2023/07/08 10:52:39;;;;;;;4.40;2.65;;;29.10;99.90;;;;;;1899524;75;21561;-81
2023/07/08 10:55:35;;;;;;;4.10;3.30;;;29.00;99.90;;;;;;1901993;75;21126;-82
2023/07/08 10:58:54;;;;;;;8.05;3.33;;;29.20;99.90;;;;;;1901122;74;21245;-81
2023/07/08 11:04:42;;;;;;;5.47;3.02;;;29.50;99.90;;;;;;1928420;72;20534;-81
2023/07/08 11:07:38;;;;;;;4.55;3.02;;;29.60;99.90;;;;;;1895003;75;21094;-81
2023/07/08 11:10:35;;;;;;;5.87;2.80;;;29.70;99.90;;;;;;1904923;75;21084;-81
2023/07/08 11:18:55;;;;;;;6.67;3.12;;;29.60;99.90;;;;;;1933879;72;22303;-81
2023/07/08 11:21:49;;;;;;;6.75;2.72;;;29.70;99.90;;;;;;1884880;75;21067;-80
2023/07/08 11:27:27;;;;;;;4.25;2.70;;;29.90;99.90;;;;;;1932908;72;22169;-81
2023/07/08 11:30:24;;;;;;;6.00;3.27;;;29.90;99.90;;;;;;1917911;73;21095;-80
2023/07/08 11:33:17;;;;;;;5.90;2.72;;;30.10;99.90;;;;;;1902350;75;21167;-80
2023/07/08 11:41:34;;;;;;;5.17;3.00;;;30.30;99.90;;;;;;1956066;72;22239;-82
2023/07/08 11:44:25;;;;;;;4.33;2.62;;;30.40;99.90;;;;;;1916483;74;21094;-81
2023/07/08 11:47:20;;;;;;;4.67;2.95;;;30.40;99.90;;;;;;1909955;74;21052;-82
2023/07/08 11:52:55;;;;;;;5.65;2.87;;;30.50;99.90;;;;;;1951428;72;22228;-81
2023/07/08 11:55:50;;;;;;;4.37;2.67;;;30.50;99.90;;;;;;1939047;73;21127;-81
2023/07/08 11:58:55;;;;;;;4.08;2.87;;;30.60;99.90;;;;;;1941389;73;21042;-81
2023/07/08 12:01:54;;;;;;;4.95;2.50;;;30.70;99.90;;;;;;1922496;73;21164;-82
2023/07/08 12:07:43;;;;;;;5.05;2.95;;;30.70;99.90;;;;;;1929134;72;22179;-81
2023/07/08 12:10:40;;;;;;;5.50;2.85;;;30.70;99.90;;;;;;1884017;75;21067;-81
2023/07/08 12:13:32;;;;;;;5.72;3.12;;;30.60;99.90;;;;;;1882405;75;21665;-82
2023/07/08 12:16:23;;;;;;;5.30;3.05;;;30.70;99.90;;;;;;1884477;75;21188;-81
2023/07/08 12:21:58;;;;;;;4.60;2.80;;;30.80;99.90;;;;;;1948853;72;22597;-81
2023/07/08 12:24:49;;;;;;;4.83;3.08;;;31.00;99.90;;;;;;1927250;73;21175;-82
2023/07/08 12:27:41;;;;;;;4.60;2.90;;;31.10;99.90;;;;;;1916977;73;21187;-81
2023/07/08 12:30:33;;;;;;;4.87;3.15;;;31.20;99.90;;;;;;1933567;73;21487;-81
2023/07/08 12:33:31;;;;;;;4.58;2.65;;;31.20;99.90;;;;;;1914636;74;21044;-81
2023/07/08 12:36:24;;;;;;;4.62;2.80;;;31.20;99.90;;;;;;1924297;73;21514;-81
2023/07/08 12:39:18;;;;;;;5.10;3.15;;;31.30;99.90;;;;;;1915414;73;21509;-81
2023/07/08 12:42:12;;;;;;;5.60;2.60;;;31.30;99.90;;;;;;1918288;73;21106;-81
2023/07/08 12:45:07;;;;;;;4.65;3.08;;;31.50;99.90;;;;;;1919370;73;21116;-82
2023/07/08 12:47:58;;;;;;;5.47;2.87;;;31.60;99.90;;;;;;1916095;75;21164;-82
2023/07/08 12:53:31;;;;;;;6.50;2.75;;;31.80;99.90;;;;;;1937706;72;22162;-81
2023/07/08 12:56:25;;;;;;;4.75;2.65;;;32.00;99.90;;;;;;1875054;75;21103;-81
2023/07/08 12:59:20;;;;;;;4.10;2.85;;;32.30;99.90;;;;;;1895272;75;21106;-82
2023/07/08 13:04:58;;;;;;;6.67;3.30;;;32.80;99.90;;;;;;1941297;72;22153;-82
2023/07/08 13:07:51;;;;;;;4.80;3.02;;;33.00;99.90;;;;;;1900558;75;21130;-82
2023/07/08 13:10:44;;;;;;;5.30;3.12;;;33.00;99.90;;;;;;1902771;75;21083;-82
2023/07/08 13:13:38;;;;;;;3.98;2.90;;;33.10;99.90;;;;;;1904029;75;21110;-83
2023/07/08 13:21:59;;;;;;;5.03;2.65;;;33.30;99.90;;;;;;1935253;72;22299;-84
2023/07/08 13:27:30;;;;;;;5.78;2.72;;;33.30;99.90;;;;;;1939054;72;22186;-83
2023/07/08 13:30:24;;;;;;;4.80;3.08;;;33.10;99.90;;;;;;1882179;75;21154;-83
2023/07/08 13:33:18;;;;;;;6.25;3.00;;;33.30;99.90;;;;;;1886142;75;21107;-84
2023/07/08 13:36:12;;;;;;;4.15;3.02;;;33.50;99.90;;;;;;1901776;75;21205;-82
2023/07/08 13:39:06;;;;;;;4.80;3.02;;;33.70;99.20;;;;;;1879789;75;21209;-84
2023/07/08 13:41:58;;;;;;;4.62;2.70;;;34.00;98.50;;;;;;1887878;75;21051;-84
2023/07/08 13:44:51;;;;;;;5.78;3.20;;;33.70;98.50;;;;;;1846888;77;21143;-85
2023/07/08 13:47:42;;;;;;;5.55;2.90;;;33.80;98.30;;;;;;1899945;75;21048;-84
2023/07/08 13:53:25;;;;;;;4.35;3.00;;;34.10;98.20;;;;;;1940210;72;22205;-84
2023/07/08 13:56:19;;;;;;;3.95;2.98;;;34.20;97.30;;;;;;1923557;73;21179;-82
2023/07/08 14:01:58;;;;;;;4.30;2.90;;;34.30;97.50;;;;;;1957926;72;22513;-83
2023/07/08 14:04:50;;;;;;;5.12;2.77;;;34.20;97.30;;;;;;1915768;74;21086;-83
2023/07/08 14:07:42;;;;;;;4.60;2.87;;;34.30;97.00;;;;;;1907055;74;22329;-84
2023/07/08 14:10:33;;;;;;;5.72;2.65;;;34.50;96.50;;;;;;1905899;74;21099;-83
2023/07/08 14:13:27;;;;;;;4.30;2.85;;;34.90;96.50;;;;;;1908276;74;21075;-83
2023/07/08 14:16:24;;;;;;;7.20;3.08;;;35.40;95.70;;;;;;1904148;75;21103;-83
2023/07/08 14:21:58;;;;;;;5.45;3.20;;;35.80;94.10;;;;;;1944851;72;22154;-82
2023/07/08 14:24:49;;;;;;;5.78;3.05;;;35.90;94.30;;;;;;1913469;75;21086;-84
2023/07/08 14:30:22;;;;;;;6.03;3.08;;;36.20;93.00;;;;;;1932741;72;22174;-83
2023/07/08 14:33:14;;;;;;;5.95;3.12;;;36.40;93.00;;;;;;1905463;75;21106;-83
2023/07/08 14:36:09;;;;;;;5.78;3.40;;;36.70;92.70;;;;;;1898849;75;21092;-83
2023/07/08 14:41:41;;;;;;;5.33;3.45;;;37.10;91.40;;;;;;1932934;72;22237;-82
2023/07/08 14:44:36;;;;;;;5.22;3.33;;;37.60;91.30;;;;;;1904571;73;21097;-83
2023/07/08 14:47:29;;;;;;;4.28;3.30;;;37.90;88.50;;;;;;1903458;73;21160;-83
2023/07/08 14:50:21;;;;;;;6.03;2.80;;;38.30;89.20;;;;;;1901229;75;21160;-83
2023/07/08 14:53:14;;;;;;;4.97;3.20;;;38.10;86.30;;;;;;1894468;75;21184;-83
2023/07/08 14:56:09;;;;;;;4.47;3.05;;;37.60;86.40;;;;;;1890181;75;21105;-84
2023/07/08 14:59:00;;;;;;;5.87;3.27;;;37.40;86.60;;;;;;1913478;75;21135;-82
2023/07/08 15:01:54;;;;;;;5.53;3.00;;;37.60;85.70;;;;;;1890214;73;21055;-83
2023/07/08 15:07:25;;;;;;;3.62;2.67;;;38.10;83.10;;;;;;1948570;72;22260;-85
2023/07/08 15:12:55;;;;;;;5.45;3.10;;;38.80;81.90;;;;;;1924244;72;22812;-85
2023/07/08 15:15:47;;;;;;;6.33;3.10;;;39.00;80.40;;;;;;1904177;75;21189;-84
2023/07/08 15:18:38;;;;;;;5.05;3.10;;;39.00;79.40;;;;;;1905148;75;21153;-84
2023/07/08 15:24:13;;;;;;;5.47;2.92;;;39.00;78.10;;;;;;1935151;72;22360;-82
2023/07/08 15:27:06;;;;;;;4.70;2.70;;;39.20;77.90;;;;;;1916548;75;21134;-84
2023/07/08 15:30:02;;;;;;;5.50;3.33;;;39.20;77.50;;;;;;1914042;74;21174;-85
2023/07/08 15:32:54;;;;;;;5.25;3.22;;;39.40;76.30;;;;;;1907683;73;21109;-83
2023/07/08 15:35:45;;;;;;;5.67;2.83;;;39.20;76.50;;;;;;1896075;75;21194;-83
2023/07/08 15:38:37;;;;;;;6.08;3.08;;;38.80;74.90;;;;;;1907874;74;21104;-85
2023/07/08 15:41:29;;;;;;;5.58;2.77;;;39.00;74.30;;;;;;1908674;73;21055;-84
2023/07/08 15:47:01;;;;;;;6.50;3.05;;;39.20;72.80;;;;;;1934479;72;22201;-82
2023/07/08 15:49:53;;;;;;;4.40;2.90;;;38.90;73.70;;;;;;1906808;75;21169;-83
2023/07/08 15:52:44;;;;;;;5.97;3.33;;;39.20;72.30;;;;;;1886895;74;21539;-82
2023/07/08 15:55:38;;;;;;;3.72;2.90;;;39.20;72.50;;;;;;1917362;74;21097;-81
2023/07/08 15:58:32;;;;;;;3.47;2.67;;;39.00;73.00;;;;;;1896983;73;21100;-82
2023/07/08 16:01:25;;;;;;;6.22;3.00;;;39.10;73.00;;;;;;1913372;74;21134;-82
2023/07/08 16:04:22;;;;;;;4.72;2.83;;;39.10;72.70;;;;;;1902563;75;21162;-82
2023/07/08 16:07:13;;;;;;;4.20;2.92;;;39.10;71.50;;;;;;1913248;74;21082;-83
2023/07/08 16:12:46;;;;;;;4.78;2.72;;;39.00;71.80;;;;;;1931935;72;22165;-82
2023/07/08 16:15:39;;;;;;;4.10;2.58;;;38.80;71.60;;;;;;1888813;75;21497;-82
2023/07/08 16:21:16;;;;;;;6.08;3.00;;;38.80;70.60;;;;;;1942005;72;22221;-84
2023/07/08 16:24:08;;;;;;;4.60;2.65;;;39.10;70.50;;;;;;1913790;74;21194;-82
2023/07/08 16:27:00;;;;;;;5.08;2.92;;;39.10;70.20;;;;;;1923366;73;21261;-82
2023/07/08 16:29:51;;;;;;;4.20;2.87;;;38.50;71.00;;;;;;1905675;74;21139;-82
2023/07/08 16:32:43;;;;;;;4.25;2.87;;;38.50;71.00;;;;;;1912314;74;21070;-82
2023/07/08 16:35:35;;;;;;;7.87;2.98;;;39.00;70.90;;;;;;1931066;73;21105;-83
2023/07/08 16:41:07;;;;;;;4.83;3.30;;;38.70;70.30;;;;;;1932808;72;22662;-81
2023/07/08 16:46:37;;;;;;;5.10;2.83;;;38.50;70.70;;;;;;1946917;72;22251;-83
2023/07/08 16:49:31;;;;;;;4.92;3.15;;;38.30;70.70;;;;;;1926263;73;21122;-82
2023/07/08 16:52:23;;;;;;;7.33;2.85;;;38.70;70.40;;;;;;1940765;73;21133;-83
2023/07/08 16:55:16;;;;;;;7.03;2.70;;;38.60;70.80;;;;;;1917916;73;21574;-82
2023/07/08 16:58:11;;;;;;;6.22;3.42;;;38.60;69.70;;;;;;1917251;73;21141;-84
2023/07/08 17:01:04;;;;;;;6.70;3.02;;;38.50;70.10;;;;;;1928654;73;21474;-82
2023/07/08 17:06:35;;;;;;;5.35;2.98;;;38.90;70.10;;;;;;1941990;72;22762;-82
2023/07/08 17:09:26;;;;;;;4.53;3.15;;;39.00;69.20;;;;;;1926451;73;21143;-83
2023/07/08 17:12:17;;;;;;;7.45;3.22;;;38.90;69.60;;;;;;1932466;73;21058;-82
2023/07/08 17:15:12;;;;;;;5.17;3.05;;;38.90;69.80;;;;;;1916593;75;21212;-83
2023/07/08 17:18:06;;;;;;;5.83;3.05;;;38.80;69.80;;;;;;1927608;74;21113;-83
2023/07/08 17:23:37;;;;;;;4.72;3.00;;;38.60;69.70;;;;;;1939051;72;22256;-82
2023/07/08 17:31:53;;;;;;;6.62;2.72;;;37.60;70.80;;;;;;1930088;72;22214;-81
2023/07/08 17:37:23;;;;;;;5.67;3.20;;;37.20;71.50;;;;;;1951815;72;23094;-82
2023/07/08 17:40:17;;;;;;;4.70;3.08;;;36.90;72.30;;;;;;1924917;74;21095;-82
2023/07/08 17:43:08;;;;;;;4.28;2.85;;;36.50;73.00;;;;;;1909701;74;21062;-81
2023/07/08 17:45:59;;;;;;;4.62;3.08;;;36.30;73.80;;;;;;1916695;74;21109;-82
2023/07/08 17:51:30;;;;;;;6.72;3.08;;;35.90;74.80;;;;;;1933468;72;22148;-81
2023/07/08 17:54:22;;;;;;;5.58;3.00;;;35.70;74.90;;;;;;1897583;75;21181;-84
2023/07/08 17:59:52;;;;;;;8.20;3.35;;;36.00;74.60;;;;;;1942227;72;22236;-82
2023/07/08 18:02:43;;;;;;;5.80;3.05;;;36.00;74.70;;;;;;1900918;74;21048;-82
2023/07/08 18:05:35;;;;;;;4.97;2.98;;;36.30;75.50;;;;;;1886893;75;21102;-82
2023/07/08 18:08:26;;;;;;;4.10;3.02;;;36.10;76.10;;;;;;1891600;75;21639;-82
2023/07/08 18:11:20;;;;;;;6.92;3.33;;;36.10;75.40;;;;;;1904511;75;21063;-82